Time;durP1;ratioP1;P1;durP2;ratioP2;P2;SDS_P1;SDS_P2;PMS_P1;PMS_P2;Temp;Humidity;BMP_temperature;BMP_pressure;BME280_temperature;BME280_humidity;BME280_pressure;Samples;Min_cycle;Max_cycle;Signal;HPM_P1;HPM_P2
2022/12/21 00:04:01;;;;;;;50.40;22.90;;;;;;;0.96;81.37;98619.50;420853;1298;99129;-40
2022/12/21 00:14:09;;;;;;;30.10;17.00;;;;;;;0.85;81.38;98612.05;420842;1295;110217;-39
2022/12/21 00:34:23;;;;;;;45.00;20.90;;;;;;;0.72;81.45;98644.21;420816;1298;99246;-40
2022/12/21 00:44:30;;;;;;;40.60;18.40;;;;;;;0.58;81.33;98657.02;420762;1299;111002;-40
2022/12/21 00:54:37;;;;;;;32.00;17.00;;;;;;;0.55;81.43;98637.84;420662;1298;108014;-40
2022/12/21 01:04:45;;;;;;;49.00;21.70;;;;;;;0.60;81.48;98647.54;420680;1294;99425;-40
2022/12/21 01:14:52;;;;;;;42.70;22.10;;;;;;;0.55;81.55;98627.08;420853;1295;108026;-39
2022/12/21 01:24:59;;;;;;;33.20;19.00;;;;;;;0.50;81.58;98620.75;420776;1297;99339;-39
2022/12/21 01:35:08;;;;;;;29.30;15.60;;;;;;;0.51;81.59;98621.34;420752;1294;111966;-40
2022/12/21 01:45:16;;;;;;;40.10;18.10;;;;;;;0.49;81.63;98600.88;420731;1299;107927;-40
2022/12/21 01:55:25;;;;;;;42.40;18.90;;;;;;;0.43;81.75;98593.30;420829;1296;99230;-40
2022/12/21 02:05:38;;;;;;;34.40;16.90;;;;;;;0.37;81.64;98582.29;420728;1298;108022;-41
2022/12/21 02:16:01;;;;;;;34.80;16.10;;;;;;;0.41;81.56;98557.86;420725;1283;99239;-40
2022/12/21 02:26:29;;;;;;;40.20;19.10;;;;;;;0.40;81.84;98556.08;420892;1298;110640;-40
2022/12/21 02:36:36;;;;;;;40.70;20.10;;;;;;;0.29;81.88;98560.25;421549;1278;470208;-40
2022/12/21 02:46:54;;;;;;;34.70;17.20;;;;;;;0.21;81.77;98552.73;420984;1284;98630;-45
2022/12/21 02:57:02;;;;;;;35.80;18.80;;;;;;;0.19;81.73;98564.40;420972;1284;111649;-40
2022/12/21 03:07:23;;;;;;;52.70;23.50;;;;;;;0.16;82.07;98548.65;420866;1291;107515;-39
2022/12/21 03:17:28;;;;;;;43.20;21.50;;;;;;;0.07;82.01;98531.77;420828;1298;99196;-40
2022/12/21 03:27:34;;;;;;;31.80;17.20;;;;;;;0.07;82.18;98531.73;420878;1284;112499;-40
2022/12/21 03:37:43;;;;;;;36.20;15.90;;;;;;;0.09;81.98;98542.79;420908;1290;108764;-40
2022/12/21 03:47:51;;;;;;;48.70;23.40;;;;;;;0.03;82.21;98531.04;420880;1298;98043;-40
2022/12/21 03:57:59;;;;;;;42.30;20.10;;;;;;;-0.08;82.29;98525.42;420981;1298;111790;-39
2022/12/21 04:08:04;;;;;;;34.20;17.90;;;;;;;-0.05;82.32;98522.69;420851;1287;108043;-40
2022/12/21 04:18:11;;;;;;;46.30;20.70;;;;;;;-0.01;82.29;98517.39;420879;1291;98828;-41
2022/12/21 04:28:18;;;;;;;64.10;24.70;;;;;;;-0.01;82.69;98513.39;420898;1291;108560;-39
2022/12/21 04:38:46;;;;;;;47.30;20.50;;;;;;;-0.00;82.82;98510.37;420865;1294;99135;-42
2022/12/21 04:48:53;;;;;;;39.60;17.60;;;;;;;0.08;82.76;98517.80;420899;1284;110397;-40
2022/12/21 04:59:01;;;;;;;39.00;17.10;;;;;;;0.23;82.90;98527.19;420843;1281;108305;-40
2022/12/21 05:09:08;;;;;;;40.20;19.50;;;;;;;0.31;83.06;98518.08;420936;1298;98837;-42
2022/12/21 05:19:16;;;;;;;42.40;20.10;;;;;;;0.27;82.95;98511.95;420859;1298;107056;-41
2022/12/21 05:29:23;;;;;;;32.90;16.00;;;;;;;0.32;83.09;98510.65;420856;1298;97974;-39
2022/12/21 05:39:30;;;;;;;34.70;17.60;;;;;;;0.43;83.32;98506.33;420899;1289;113659;-41
2022/12/21 05:49:37;;;;;;;43.20;22.30;;;;;;;0.48;83.26;98509.50;420886;1292;107384;-41
2022/12/21 05:59:44;;;;;;;43.60;22.10;;;;;;;0.46;83.42;98513.98;421103;1298;101555;-40
2022/12/21 06:09:51;;;;;;;30.60;18.10;;;;;;;0.56;83.45;98496.75;420865;1292;107266;-39
2022/12/21 06:19:59;;;;;;;33.20;18.20;;;;;;;0.69;83.65;98480.23;420925;1298;99258;-39
2022/12/21 06:30:06;;;;;;;47.00;22.10;;;;;;;0.78;83.76;98472.16;421030;1297;112078;-43
2022/12/21 06:40:14;;;;;;;48.60;25.10;;;;;;;0.78;83.92;98474.57;420911;1292;106856;-39
2022/12/21 06:50:21;;;;;;;33.70;17.10;;;;;;;0.85;83.85;98483.98;420877;1298;99252;-41
2022/12/21 07:00:28;;;;;;;31.90;17.60;;;;;;;1.00;83.95;98482.67;420854;1298;110744;-40
2022/12/21 07:10:38;;;;;;;38.10;18.50;;;;;;;1.15;84.15;98478.61;420827;1288;108489;-41
2022/12/21 07:20:49;;;;;;;43.10;19.50;;;;;;;1.27;84.15;98471.77;420824;1298;99038;-41
2022/12/21 07:31:03;;;;;;;23.10;12.60;;;;;;;1.42;84.05;98471.79;420889;1298;108419;-40
2022/12/21 07:41:13;;;;;;;23.80;14.80;;;;;;;1.62;84.03;98509.98;420818;1287;99227;-41
2022/12/21 07:51:21;;;;;;;36.00;17.70;;;;;;;1.75;84.06;98489.66;420915;1290;111104;-39
2022/12/21 08:01:28;;;;;;;38.60;16.70;;;;;;;1.75;84.07;98472.97;420737;1291;108346;-40
2022/12/21 08:11:36;;;;;;;27.10;13.80;;;;;;;1.81;83.98;98475.05;420756;1298;99132;-41
2022/12/21 08:21:43;;;;;;;24.80;14.20;;;;;;;1.96;83.92;98461.85;420882;1287;107695;-41
2022/12/21 08:31:51;;;;;;;41.40;19.50;;;;;;;2.11;83.98;98459.26;420861;1295;99199;-39
2022/12/21 08:41:58;;;;;;;35.10;17.50;;;;;;;2.21;83.87;98449.23;420916;1287;111852;-44
2022/12/21 08:52:05;;;;;;;21.50;12.80;;;;;;;2.38;83.63;98449.09;420774;1294;108620;-40
2022/12/21 09:02:12;;;;;;;27.50;14.60;;;;;;;2.53;83.58;98457.91;420770;1298;98828;-41
2022/12/21 09:12:19;;;;;;;35.30;17.60;;;;;;;2.57;83.52;98451.92;420877;1299;107481;-40
2022/12/21 09:22:26;;;;;;;32.20;16.00;;;;;;;2.55;83.38;98452.98;420893;1291;99123;-40
2022/12/21 09:32:34;;;;;;;27.70;14.40;;;;;;;2.62;83.14;98449.84;420957;1298;113082;-41
2022/12/21 09:42:48;;;;;;;35.10;16.90;;;;;;;2.61;83.07;98451.58;420975;1298;108473;-39
2022/12/21 09:52:55;;;;;;;37.90;19.30;;;;;;;2.49;83.04;98455.81;420825;1293;99240;-40
2022/12/21 10:03:14;;;;;;;26.20;14.50;;;;;;;2.51;82.75;98444.63;420864;1288;110256;-41
2022/12/21 10:13:24;;;;;;;35.00;17.60;;;;;;;2.71;82.77;98440.29;420788;1298;109859;-41
2022/12/21 10:33:36;;;;;;;31.10;17.40;;;;;;;2.72;82.39;98425.77;420971;1299;112092;-40
2022/12/21 10:54:04;;;;;;;35.20;17.70;;;;;;;2.63;82.41;98418.31;421051;1292;98038;-40
2022/12/21 11:04:13;;;;;;;42.60;20.10;;;;;;;2.53;82.44;98412.38;421010;1292;109495;-40
2022/12/21 11:14:22;;;;;;;34.70;18.10;;;;;;;2.44;82.39;98407.50;420751;1287;99116;-40
2022/12/21 11:24:33;;;;;;;35.50;17.30;;;;;;;2.47;82.44;98401.27;420884;1281;111767;-45
2022/12/21 11:34:42;;;;;;;41.60;20.60;;;;;;;2.48;82.65;98393.94;420978;1295;106462;-40
2022/12/21 11:44:52;;;;;;;38.30;16.90;;;;;;;2.53;82.59;98387.31;420962;1298;99290;-41
2022/12/21 11:54:58;;;;;;;23.90;14.00;;;;;;;2.57;82.39;98379.89;420941;1292;111204;-42
2022/12/21 12:05:08;;;;;;;29.00;17.10;;;;;;;2.62;82.55;98376.02;420716;1295;108713;-38
2022/12/21 12:15:21;;;;;;;41.70;21.20;;;;;;;2.55;82.60;98376.98;420933;1299;99035;-41
2022/12/21 12:25:43;;;;;;;39.30;18.80;;;;;;;2.37;82.71;98387.78;420930;1286;111997;-41
2022/12/21 12:46:01;;;;;;;38.30;18.20;;;;;;;2.19;83.03;98371.23;420820;1304;99242;-40
2022/12/21 12:56:14;;;;;;;38.30;19.10;;;;;;;2.17;83.21;98373.19;420773;1295;106609;-40
2022/12/21 13:06:22;;;;;;;57.50;26.50;;;;;;;2.12;83.41;98364.56;420945;1304;99223;-40
2022/12/21 13:16:27;;;;;;;51.10;24.70;;;;;;;2.02;83.72;98354.73;420949;1304;111358;-40
2022/12/21 13:26:38;;;;;;;38.50;20.90;;;;;;;1.99;83.71;98352.66;420815;1287;108826;-41
2022/12/21 13:36:47;;;;;;;36.90;19.60;;;;;;;2.02;83.86;98351.52;420871;1299;99220;-39
2022/12/21 13:46:56;;;;;;;30.60;17.50;;;;;;;2.04;83.93;98358.08;420991;1302;106880;-40
2022/12/21 13:57:04;;;;;;;45.30;22.20;;;;;;;1.99;84.29;98364.59;420955;1292;99252;-40
2022/12/21 14:07:31;;;;;;;40.20;20.00;;;;;;;1.88;84.54;98353.38;420855;1295;112152;-40
2022/12/21 14:17:45;;;;;;;30.70;17.30;;;;;;;1.84;84.55;98355.86;420851;1298;107808;-41
2022/12/21 14:28:12;;;;;;;30.90;17.80;;;;;;;1.87;84.81;98359.58;420814;1294;100162;-40
2022/12/21 14:49:03;;;;;;;35.80;20.60;;;;;;;1.84;85.20;98356.70;420770;1298;98016;-40
2022/12/21 14:59:14;;;;;;;48.20;24.90;;;;;;;1.79;85.42;98351.27;420999;1295;112945;-40
2022/12/21 15:09:24;;;;;;;33.80;19.60;;;;;;;1.72;85.66;98352.98;420702;1292;106791;-41
2022/12/21 15:19:34;;;;;;;37.40;22.10;;;;;;;1.72;85.79;98345.81;420709;1299;99236;-40
2022/12/21 15:29:45;;;;;;;36.90;20.40;;;;;;;1.73;86.06;98338.01;420905;1298;107941;-41
2022/12/21 15:39:59;;;;;;;34.60;20.70;;;;;;;1.75;86.09;98332.97;420878;1295;99160;-40
2022/12/21 16:00:20;;;;;;;50.90;25.10;;;;;;;1.62;86.58;98321.88;420846;1292;107810;-42
2022/12/21 16:10:32;;;;;;;40.80;22.20;;;;;;;1.60;86.71;98325.99;420861;1298;98834;-38
2022/12/21 16:20:41;;;;;;;41.80;23.10;;;;;;;1.62;86.83;98336.91;420740;1292;106918;-41
2022/12/21 16:30:50;;;;;;;50.60;26.10;;;;;;;1.65;87.02;98334.67;420784;1292;98027;-41
2022/12/21 16:41:03;;;;;;;50.20;25.30;;;;;;;1.68;87.11;98338.94;420773;1298;111533;-40
2022/12/21 17:01:49;;;;;;;60.20;27.90;;;;;;;1.63;87.43;98334.60;420923;1298;98876;-39
2022/12/21 17:22:20;;;;;;;45.30;24.30;;;;;;;1.51;87.64;98330.23;420820;1291;99213;-40
2022/12/21 17:32:28;;;;;;;43.00;23.30;;;;;;;1.57;87.68;98324.98;420941;1299;112168;-40
2022/12/21 17:42:35;;;;;;;36.20;21.90;;;;;;;1.65;87.84;98316.80;420833;1295;106254;-40
2022/12/21 17:52:44;;;;;;;40.50;23.90;;;;;;;1.70;87.77;98313.94;420917;1298;99214;-40
2022/12/21 18:02:51;;;;;;;36.70;21.40;;;;;;;1.71;88.04;98312.75;420788;1294;107424;-39
2022/12/21 18:13:00;;;;;;;38.30;22.10;;;;;;;1.75;88.12;98310.23;420782;1292;98825;-40
2022/12/21 18:23:09;;;;;;;62.70;31.40;;;;;;;1.73;88.10;98311.73;420873;1295;111005;-40
2022/12/21 18:33:19;;;;;;;63.20;29.10;;;;;;;1.65;88.29;98305.09;420897;1291;108611;-40
2022/12/21 18:43:28;;;;;;;47.00;24.70;;;;;;;1.62;88.36;98307.20;420677;1295;99240;-40
2022/12/21 18:53:37;;;;;;;40.40;20.10;;;;;;;1.66;88.33;98305.19;420859;1295;111540;-39
2022/12/21 19:03:45;;;;;;;36.90;21.10;;;;;;;1.70;88.42;98296.90;420795;1298;108611;-39
2022/12/21 19:13:54;;;;;;;36.70;19.40;;;;;;;1.74;88.57;98298.52;420730;1291;98374;-40
2022/12/21 19:24:11;;;;;;;34.10;19.80;;;;;;;1.77;88.51;98286.27;420747;1284;109022;-39
2022/12/21 19:34:18;;;;;;;57.60;27.30;;;;;;;1.76;88.56;98272.22;420894;1290;98838;-39
2022/12/21 19:44:27;;;;;;;65.70;29.80;;;;;;;1.68;88.73;98286.30;421051;1292;111354;-38
2022/12/21 19:54:34;;;;;;;47.30;26.00;;;;;;;1.64;88.69;98280.84;420876;1298;108563;-39
2022/12/21 20:04:41;;;;;;;51.30;23.70;;;;;;;1.68;88.75;98273.30;421576;1298;99223;-39
2022/12/21 20:14:49;;;;;;;46.60;24.30;;;;;;;1.74;88.85;98279.87;420834;1291;111081;-39
2022/12/21 20:24:56;;;;;;;53.30;26.10;;;;;;;1.78;88.79;98293.23;420846;1291;107437;-40
2022/12/21 20:35:04;;;;;;;61.30;29.90;;;;;;;1.80;88.85;98299.79;420914;1291;99223;-39
2022/12/21 20:45:29;;;;;;;59.10;32.00;;;;;;;1.75;89.03;98286.89;420808;1295;109534;-40
2022/12/21 21:06:06;;;;;;;38.70;21.80;;;;;;;1.73;88.95;98278.96;420828;1290;112895;-40
2022/12/21 21:16:13;;;;;;;35.10;20.60;;;;;;;1.78;88.97;98272.00;420768;1292;107537;-40
2022/12/21 21:26:21;;;;;;;40.00;22.50;;;;;;;1.79;89.11;98281.37;420756;1298;99247;-40
2022/12/21 21:36:29;;;;;;;71.60;33.80;;;;;;;1.78;89.34;98275.58;420742;1284;107762;-40
2022/12/21 21:46:37;;;;;;;58.70;28.50;;;;;;;1.70;89.38;98273.21;420854;1292;98041;-40
2022/12/21 21:56:42;;;;;;;41.50;22.40;;;;;;;1.70;89.39;98267.74;420897;1292;111942;-41
2022/12/21 22:16:57;;;;;;;36.20;21.80;;;;;;;1.82;89.50;98271.58;420887;1291;98546;-39
2022/12/21 22:47:50;;;;;;;33.80;20.10;;;;;;;1.88;89.70;98231.32;420785;1298;110148;-40
2022/12/21 22:57:59;;;;;;;31.20;18.50;;;;;;;1.87;89.73;98235.28;420789;1284;109013;-39
2022/12/21 23:08:03;;;;;;;53.10;24.80;;;;;;;1.86;89.86;98241.61;420858;1298;99158;-40
2022/12/21 23:28:41;;;;;;;59.30;29.80;;;;;;;1.75;89.96;98248.70;420781;1294;99233;-40
